Time;durP1;ratioP1;P1;durP2;ratioP2;P2;SDS_P1;SDS_P2;PMS_P1;PMS_P2;Temp;Humidity;BMP_temperature;BMP_pressure;BME280_temperature;BME280_humidity;BME280_pressure;Samples;Min_cycle;Max_cycle;Signal;HPM_P1;HPM_P2
2021/05/31 00:00:17;;;;;;;5.00;4.10;;;8.90;99.90;;;;;;5070243;28;20903;-66
2021/05/31 00:02:44;;;;;;;4.80;4.07;;;8.80;99.90;;;;;;5070651;28;20440;-64
2021/05/31 00:05:12;;;;;;;4.33;3.77;;;8.70;99.90;;;;;;5071212;28;20447;-64
2021/05/31 00:07:38;;;;;;;5.30;4.23;;;8.60;99.90;;;;;;5070836;28;20969;-63
2021/05/31 00:10:06;;;;;;;4.47;3.50;;;8.50;99.90;;;;;;5070538;28;20443;-64
2021/05/31 00:12:33;;;;;;;4.97;3.90;;;8.50;99.90;;;;;;5070652;28;20447;-64
2021/05/31 00:14:59;;;;;;;5.93;3.50;;;8.50;99.90;;;;;;5070440;28;20447;-64
2021/05/31 00:17:26;;;;;;;6.60;3.40;;;8.50;99.90;;;;;;5070605;28;21036;-65
2021/05/31 00:19:54;;;;;;;4.67;3.87;;;8.70;99.90;;;;;;5069923;28;20529;-64
2021/05/31 00:22:21;;;;;;;9.70;3.67;;;8.70;99.90;;;;;;5070109;28;20465;-64
2021/05/31 00:24:48;;;;;;;4.70;4.00;;;8.70;99.90;;;;;;5070371;28;20447;-64
2021/05/31 00:27:15;;;;;;;7.03;4.00;;;8.80;99.90;;;;;;5070255;28;21015;-65
2021/05/31 00:29:43;;;;;;;5.53;3.77;;;8.80;99.90;;;;;;5069727;28;20960;-64
2021/05/31 00:32:10;;;;;;;5.20;4.37;;;8.80;99.90;;;;;;5070147;28;20552;-64
2021/05/31 00:34:36;;;;;;;5.63;4.50;;;8.80;99.90;;;;;;5070444;28;20455;-65
2021/05/31 00:37:03;;;;;;;6.23;4.20;;;8.70;99.90;;;;;;5070101;28;20435;-63
2021/05/31 00:39:30;;;;;;;5.43;4.23;;;8.50;99.90;;;;;;5069755;28;20798;-63
2021/05/31 00:41:56;;;;;;;6.40;4.53;;;8.40;99.90;;;;;;5069947;28;20471;-65
2021/05/31 00:44:23;;;;;;;6.60;5.37;;;8.30;99.90;;;;;;5069930;28;20535;-64
2021/05/31 00:46:52;;;;;;;5.27;3.90;;;8.10;99.90;;;;;;5070086;28;20447;-63
2021/05/31 00:49:21;;;;;;;6.10;4.10;;;8.00;99.90;;;;;;5069699;28;20442;-64
2021/05/31 00:51:48;;;;;;;5.27;4.10;;;8.00;99.90;;;;;;5069796;28;21219;-64
2021/05/31 00:54:14;;;;;;;5.80;4.30;;;8.10;99.90;;;;;;5073256;28;20439;-63
2021/05/31 00:56:42;;;;;;;6.00;4.20;;;8.20;99.90;;;;;;5074272;28;20496;-63
2021/05/31 00:59:08;;;;;;;5.83;4.50;;;8.30;99.90;;;;;;5074412;28;20435;-64
2021/05/31 01:01:35;;;;;;;6.43;4.20;;;8.30;99.90;;;;;;5074414;28;20463;-64
2021/05/31 01:04:02;;;;;;;4.20;3.60;;;8.30;99.90;;;;;;5074368;28;20447;-63
2021/05/31 01:06:32;;;;;;;5.00;3.70;;;8.20;99.90;;;;;;5073966;28;20962;-63
2021/05/31 01:09:05;;;;;;;7.03;5.03;;;8.10;99.90;;;;;;5073651;28;20475;-64
2021/05/31 01:11:44;;;;;;;5.03;4.17;;;8.00;99.90;;;;;;5073692;28;20470;-64
2021/05/31 01:14:20;;;;;;;5.50;4.30;;;7.90;99.90;;;;;;5073898;28;20446;-63
2021/05/31 01:16:52;;;;;;;5.73;4.60;;;7.80;99.90;;;;;;5073837;28;20442;-66
2021/05/31 01:19:36;;;;;;;6.17;4.27;;;7.70;99.90;;;;;;5073320;28;20526;-64
2021/05/31 01:22:05;;;;;;;6.00;4.10;;;7.60;99.90;;;;;;5073141;28;20479;-64
2021/05/31 01:24:48;;;;;;;7.13;4.40;;;7.60;99.90;;;;;;5073314;28;20534;-64
2021/05/31 01:27:28;;;;;;;6.37;4.27;;;7.50;99.90;;;;;;5073742;28;20486;-65
2021/05/31 01:29:59;;;;;;;8.10;4.40;;;7.40;99.90;;;;;;5073055;28;20522;-65
2021/05/31 01:32:31;;;;;;;10.07;4.37;;;7.50;99.90;;;;;;5073118;28;20547;-64
2021/05/31 01:34:59;;;;;;;5.80;4.93;;;7.50;99.90;;;;;;5073440;28;20457;-63
2021/05/31 01:37:28;;;;;;;8.37;5.77;;;7.50;99.90;;;;;;5073281;28;20825;-63
2021/05/31 01:39:59;;;;;;;5.20;4.70;;;7.60;99.90;;;;;;5072935;28;20443;-63
2021/05/31 01:42:26;;;;;;;6.40;4.50;;;7.60;99.90;;;;;;5072853;28;20957;-64
2021/05/31 01:44:54;;;;;;;5.93;4.33;;;7.60;99.90;;;;;;5072776;28;21020;-64
2021/05/31 01:47:22;;;;;;;5.60;4.90;;;7.60;99.90;;;;;;5072899;28;20504;-64
2021/05/31 01:49:49;;;;;;;7.97;5.07;;;7.60;99.90;;;;;;5072881;28;20848;-64
2021/05/31 01:52:16;;;;;;;7.93;5.43;;;7.60;99.90;;;;;;5073113;28;20447;-64
2021/05/31 01:54:43;;;;;;;9.13;5.67;;;7.70;99.90;;;;;;5073199;28;20451;-63
2021/05/31 01:57:11;;;;;;;6.40;4.80;;;7.70;99.90;;;;;;5073352;28;20859;-64
2021/05/31 01:59:38;;;;;;;8.37;5.07;;;7.70;99.90;;;;;;5073815;28;20449;-64
2021/05/31 02:02:04;;;;;;;6.63;5.00;;;7.70;99.90;;;;;;5073434;28;20474;-65
2021/05/31 02:04:32;;;;;;;6.33;4.83;;;7.60;99.90;;;;;;5072195;28;20453;-64
2021/05/31 02:06:58;;;;;;;7.60;5.63;;;7.60;99.90;;;;;;5072826;28;20443;-64
2021/05/31 02:09:25;;;;;;;5.97;5.37;;;7.50;99.90;;;;;;5072468;28;20453;-67
2021/05/31 02:11:58;;;;;;;8.55;5.95;;;7.40;99.90;;;;;;5072142;28;20576;-63
2021/05/31 02:14:32;;;;;;;5.53;4.80;;;7.20;99.90;;;;;;5072898;28;20208;-63
2021/05/31 02:17:04;;;;;;;6.43;4.90;;;7.10;99.90;;;;;;5073145;28;20451;-64
2021/05/31 02:19:35;;;;;;;12.03;9.13;;;7.20;99.90;;;;;;5073064;28;20443;-64
2021/05/31 02:22:03;;;;;;;10.63;7.40;;;7.10;99.90;;;;;;5072208;28;20485;-65
2021/05/31 02:24:31;;;;;;;8.10;6.60;;;7.20;99.90;;;;;;5072294;28;20542;-65
2021/05/31 02:26:58;;;;;;;10.47;6.63;;;7.10;99.90;;;;;;5072391;28;20482;-65
2021/05/31 02:29:26;;;;;;;7.10;5.17;;;7.00;99.90;;;;;;5072056;28;20539;-64
2021/05/31 02:31:53;;;;;;;8.43;6.43;;;7.00;99.90;;;;;;5072309;28;21040;-65
2021/05/31 02:34:19;;;;;;;10.53;6.30;;;7.00;99.90;;;;;;5072179;28;20478;-65
2021/05/31 02:36:47;;;;;;;8.50;6.13;;;6.90;99.90;;;;;;5071921;28;20447;-64
2021/05/31 02:39:14;;;;;;;6.00;5.40;;;6.90;99.90;;;;;;5072115;28;20869;-65
2021/05/31 02:41:40;;;;;;;6.30;5.03;;;6.90;99.90;;;;;;5072298;28;20535;-65
2021/05/31 02:44:07;;;;;;;7.30;5.10;;;6.90;99.90;;;;;;5071961;28;20451;-64
2021/05/31 02:46:33;;;;;;;9.30;5.20;;;6.80;99.90;;;;;;5071902;28;20557;-64
2021/05/31 02:48:59;;;;;;;8.07;5.50;;;6.80;99.90;;;;;;5071421;28;20475;-65
2021/05/31 02:51:26;;;;;;;9.30;6.00;;;6.80;99.90;;;;;;5071429;28;20475;-65
2021/05/31 02:53:53;;;;;;;5.77;4.67;;;6.80;99.90;;;;;;5071800;28;20518;-65
2021/05/31 02:56:20;;;;;;;6.57;4.73;;;6.70;99.90;;;;;;5071586;28;20823;-64
2021/05/31 02:58:46;;;;;;;6.13;4.33;;;6.70;99.90;;;;;;5071699;28;20439;-64
2021/05/31 03:01:14;;;;;;;9.13;5.27;;;6.60;99.90;;;;;;5071242;28;20474;-64
2021/05/31 03:03:41;;;;;;;8.23;5.00;;;6.60;99.90;;;;;;5071585;28;20455;-63
2021/05/31 03:06:07;;;;;;;5.60;4.30;;;6.50;99.90;;;;;;5071805;28;20530;-65
2021/05/31 03:08:34;;;;;;;6.63;5.00;;;6.50;99.90;;;;;;5071433;28;20482;-64
2021/05/31 03:11:01;;;;;;;7.50;5.07;;;6.50;99.90;;;;;;5071187;28;20588;-64
2021/05/31 03:13:28;;;;;;;7.63;5.30;;;6.50;99.90;;;;;;5071087;28;20483;-64
2021/05/31 03:15:54;;;;;;;5.87;4.73;;;6.50;99.90;;;;;;5071197;28;20558;-64
2021/05/31 03:18:21;;;;;;;6.67;4.80;;;6.50;99.90;;;;;;5071258;28;20602;-64
2021/05/31 03:20:48;;;;;;;7.37;4.60;;;6.50;99.90;;;;;;5070766;28;20471;-64
2021/05/31 03:23:14;;;;;;;6.50;4.90;;;6.50;99.90;;;;;;5070989;28;20465;-65
2021/05/31 03:25:41;;;;;;;6.27;4.30;;;6.50;99.90;;;;;;5071205;28;20455;-64
2021/05/31 03:28:09;;;;;;;8.10;4.10;;;6.50;99.90;;;;;;5071349;28;20471;-65
2021/05/31 03:30:36;;;;;;;7.87;5.00;;;6.50;99.90;;;;;;5070587;28;20475;-64
2021/05/31 03:33:04;;;;;;;8.27;4.63;;;6.50;99.90;;;;;;5070854;28;20447;-64
2021/05/31 03:35:30;;;;;;;5.90;5.30;;;6.50;99.90;;;;;;5070987;28;20447;-64
2021/05/31 03:37:56;;;;;;;10.23;4.90;;;6.40;99.90;;;;;;5070859;28;20446;-65
2021/05/31 03:40:23;;;;;;;10.43;6.10;;;6.30;99.90;;;;;;5070564;28;20467;-65
2021/05/31 03:42:50;;;;;;;7.70;5.03;;;6.30;99.90;;;;;;5070922;28;20450;-65
2021/05/31 03:45:19;;;;;;;6.70;4.80;;;6.40;99.90;;;;;;5070818;28;20451;-65
2021/05/31 03:47:45;;;;;;;9.20;5.23;;;6.40;99.90;;;;;;5070624;28;20906;-65
2021/05/31 03:50:12;;;;;;;9.10;5.00;;;6.30;99.90;;;;;;5070751;28;20467;-65
2021/05/31 03:52:38;;;;;;;6.93;5.40;;;6.20;99.90;;;;;;5070800;28;20499;-64
2021/05/31 03:55:06;;;;;;;8.33;5.30;;;6.20;99.90;;;;;;5070761;28;20447;-65
2021/05/31 03:57:33;;;;;;;7.27;4.90;;;6.10;99.90;;;;;;5070671;28;20439;-65
2021/05/31 03:59:59;;;;;;;9.50;5.03;;;6.30;99.90;;;;;;5070242;28;20933;-65
2021/05/31 04:02:27;;;;;;;7.80;5.70;;;6.40;99.90;;;;;;5070271;28;21151;-65
2021/05/31 04:04:54;;;;;;;5.73;4.80;;;6.40;99.90;;;;;;5070021;28;20538;-65
2021/05/31 04:12:51;;;;;;;6.37;4.80;;;6.40;99.90;;;;;;5069996;28;20804;-64
2021/05/31 04:15:17;;;;;;;4.83;3.97;;;6.40;99.90;;;;;;5070057;28;20446;-65
2021/05/31 04:17:45;;;;;;;7.33;4.83;;;6.50;99.90;;;;;;5069964;28;20496;-65
2021/05/31 04:20:13;;;;;;;11.33;5.57;;;6.60;99.90;;;;;;5069572;28;20972;-65
2021/05/31 04:22:40;;;;;;;6.40;4.30;;;6.70;99.90;;;;;;5069963;28;20462;-65
2021/05/31 04:25:07;;;;;;;6.07;4.70;;;6.90;99.90;;;;;;5069732;28;20534;-66
2021/05/31 04:27:33;;;;;;;5.50;4.80;;;7.00;99.90;;;;;;5069610;28;20860;-65
2021/05/31 04:30:00;;;;;;;6.13;4.80;;;7.10;99.90;;;;;;5069649;28;20537;-65
2021/05/31 04:32:26;;;;;;;5.03;4.47;;;7.20;99.90;;;;;;5069899;28;20907;-65
2021/05/31 04:34:54;;;;;;;10.83;5.17;;;7.40;99.90;;;;;;5069817;28;20454;-65
2021/05/31 04:37:21;;;;;;;5.70;5.00;;;7.50;99.90;;;;;;5069689;28;21101;-66
2021/05/31 04:39:47;;;;;;;7.23;4.83;;;7.60;99.90;;;;;;5069507;28;20911;-65
2021/05/31 04:42:13;;;;;;;6.40;4.40;;;7.70;99.90;;;;;;5069666;28;20520;-65
2021/05/31 04:44:40;;;;;;;7.40;4.80;;;7.70;99.90;;;;;;5069815;28;20443;-65
2021/05/31 04:47:07;;;;;;;6.77;4.70;;;7.80;99.90;;;;;;5069803;28;20514;-65
2021/05/31 04:49:34;;;;;;;5.00;4.10;;;7.90;99.90;;;;;;5069347;28;20486;-65
2021/05/31 04:52:02;;;;;;;5.97;3.90;;;7.90;99.90;;;;;;5069560;28;20467;-65
2021/05/31 04:54:28;;;;;;;4.97;4.13;;;8.00;99.90;;;;;;5069576;28;20455;-66
2021/05/31 04:56:55;;;;;;;5.13;4.30;;;8.10;99.90;;;;;;5069906;28;20534;-65
2021/05/31 04:59:21;;;;;;;6.00;4.60;;;8.20;99.90;;;;;;5069608;28;20450;-66
2021/05/31 05:01:47;;;;;;;6.77;4.80;;;8.30;99.90;;;;;;5069714;28;20467;-65
2021/05/31 05:04:14;;;;;;;7.47;3.80;;;8.50;99.90;;;;;;5069567;28;20447;-64
2021/05/31 05:06:41;;;;;;;7.37;4.43;;;8.50;99.90;;;;;;5069672;28;20446;-65
2021/05/31 05:09:08;;;;;;;8.53;4.67;;;8.60;99.90;;;;;;5069298;28;20487;-66
2021/05/31 05:11:35;;;;;;;5.67;4.53;;;8.70;99.90;;;;;;5069701;28;20546;-66
2021/05/31 05:14:01;;;;;;;6.20;4.40;;;9.00;99.90;;;;;;5069749;28;20455;-66
2021/05/31 05:16:28;;;;;;;6.13;4.40;;;9.30;99.90;;;;;;5069712;28;20447;-66
2021/05/31 05:18:55;;;;;;;5.33;4.10;;;9.40;99.90;;;;;;5069287;28;20471;-64
2021/05/31 05:21:22;;;;;;;7.33;5.00;;;9.50;99.90;;;;;;5069118;28;20854;-65
2021/05/31 05:23:49;;;;;;;4.93;4.20;;;9.60;99.90;;;;;;5069361;28;20447;-65
2021/05/31 05:26:19;;;;;;;8.73;4.40;;;9.60;99.90;;;;;;5070016;28;20439;-65
2021/05/31 05:28:45;;;;;;;6.87;5.47;;;9.70;99.90;;;;;;5069911;28;20479;-66
2021/05/31 05:31:11;;;;;;;5.03;4.07;;;9.70;99.90;;;;;;5069253;28;20992;-66
2021/05/31 05:33:42;;;;;;;4.57;3.80;;;9.80;99.90;;;;;;5070050;28;20443;-65
2021/05/31 05:36:17;;;;;;;5.77;4.10;;;10.00;99.90;;;;;;5070827;28;20504;-65
2021/05/31 05:41:41;;;;;;;6.00;4.30;;;10.30;99.90;;;;;;5071703;28;20451;-66
2021/05/31 05:47:03;;;;;;;5.87;4.47;;;10.80;99.90;;;;;;5071836;28;20941;-65
2021/05/31 05:49:30;;;;;;;4.60;3.73;;;11.00;99.90;;;;;;5072323;28;20478;-65
2021/05/31 05:51:56;;;;;;;5.47;4.30;;;11.20;99.90;;;;;;5072856;28;20549;-66
2021/05/31 05:54:22;;;;;;;5.20;3.83;;;11.30;99.90;;;;;;5072386;28;20457;-66
2021/05/31 05:56:50;;;;;;;5.07;3.80;;;11.30;99.90;;;;;;5072266;28;20439;-66
2021/05/31 05:59:16;;;;;;;5.30;3.80;;;11.50;99.90;;;;;;5072017;28;20451;-66
2021/05/31 06:01:44;;;;;;;7.73;3.83;;;11.60;99.90;;;;;;5072356;28;20463;-66
2021/05/31 06:04:10;;;;;;;4.83;3.90;;;11.70;99.90;;;;;;5072306;28;20447;-65
2021/05/31 06:06:36;;;;;;;6.33;4.57;;;11.90;99.90;;;;;;5072612;28;20461;-66
2021/05/31 06:09:05;;;;;;;7.50;4.10;;;12.00;99.90;;;;;;5072056;28;20514;-65
2021/05/31 06:11:31;;;;;;;5.37;3.50;;;12.10;99.90;;;;;;5072002;28;20475;-66
2021/05/31 06:13:59;;;;;;;5.87;3.87;;;12.20;99.90;;;;;;5072367;28;20452;-66
2021/05/31 06:16:25;;;;;;;6.27;3.63;;;12.30;99.90;;;;;;5072035;28;20454;-66
2021/05/31 06:18:51;;;;;;;6.10;3.70;;;12.40;99.90;;;;;;5072076;28;20477;-66
2021/05/31 06:21:18;;;;;;;5.67;3.90;;;12.40;99.90;;;;;;5071648;28;20475;-65
2021/05/31 06:23:44;;;;;;;4.70;3.83;;;12.50;99.90;;;;;;5071932;28;20533;-65
2021/05/31 06:26:12;;;;;;;5.93;3.67;;;12.60;99.90;;;;;;5072014;28;20542;-65
2021/05/31 06:28:38;;;;;;;4.97;3.50;;;12.60;99.90;;;;;;5072904;28;20518;-65
2021/05/31 06:31:06;;;;;;;7.73;4.20;;;12.70;99.90;;;;;;5072719;28;21019;-66
2021/05/31 06:33:33;;;;;;;5.07;3.93;;;12.80;99.90;;;;;;5072029;28;20452;-65
2021/05/31 06:36:04;;;;;;;5.70;3.23;;;12.90;99.90;;;;;;5071634;28;20546;-65
2021/05/31 06:38:32;;;;;;;4.50;3.77;;;13.00;99.90;;;;;;5071172;28;20447;-65
2021/05/31 06:40:58;;;;;;;5.57;4.47;;;13.10;99.90;;;;;;5071086;28;20463;-65
2021/05/31 06:43:24;;;;;;;5.37;3.80;;;13.20;99.90;;;;;;5071505;28;20455;-65
2021/05/31 06:45:51;;;;;;;4.03;3.63;;;13.30;99.90;;;;;;5071358;28;20447;-65
2021/05/31 06:48:18;;;;;;;4.13;3.73;;;13.40;99.90;;;;;;5071245;28;20474;-65
2021/05/31 06:50:46;;;;;;;4.47;3.50;;;13.50;99.90;;;;;;5070526;28;20984;-66
2021/05/31 06:53:12;;;;;;;4.00;3.60;;;13.60;99.90;;;;;;5071204;28;20447;-64
2021/05/31 06:55:39;;;;;;;4.00;3.27;;;13.70;99.90;;;;;;5071404;28;20443;-64
2021/05/31 06:58:05;;;;;;;4.97;4.10;;;13.90;99.90;;;;;;5071258;28;20447;-65
2021/05/31 07:00:32;;;;;;;5.40;4.13;;;14.00;99.90;;;;;;5070742;28;20478;-64
2021/05/31 07:02:59;;;;;;;4.60;3.70;;;14.10;99.90;;;;;;5071108;28;20475;-64
2021/05/31 07:05:26;;;;;;;5.07;3.70;;;14.30;99.90;;;;;;5071092;28;20440;-64
2021/05/31 07:07:53;;;;;;;4.37;3.30;;;14.40;99.90;;;;;;5070840;28;20483;-64
2021/05/31 07:10:23;;;;;;;6.07;4.10;;;14.50;99.90;;;;;;5070488;28;20988;-65
2021/05/31 07:12:50;;;;;;;5.07;3.60;;;14.60;99.90;;;;;;5070961;28;20465;-64
2021/05/31 07:15:18;;;;;;;5.83;3.47;;;14.80;99.90;;;;;;5070851;28;20454;-64
2021/05/31 07:17:45;;;;;;;3.80;3.40;;;15.00;99.90;;;;;;5070927;28;20447;-64
2021/05/31 07:20:14;;;;;;;4.30;3.07;;;15.10;99.90;;;;;;5070214;28;20892;-65
2021/05/31 07:22:44;;;;;;;5.43;3.50;;;15.20;99.90;;;;;;5070517;28;21020;-64
2021/05/31 07:25:13;;;;;;;12.13;3.40;;;15.40;99.90;;;;;;5070906;28;20454;-64
2021/05/31 07:27:39;;;;;;;3.60;3.20;;;15.50;99.90;;;;;;5070794;28;20886;-63
2021/05/31 07:30:07;;;;;;;3.97;2.80;;;15.60;99.90;;;;;;5070577;28;20449;-64
2021/05/31 07:32:34;;;;;;;3.57;2.87;;;15.70;99.90;;;;;;5070784;28;20975;-64
2021/05/31 07:35:00;;;;;;;4.80;2.80;;;15.90;99.90;;;;;;5071183;28;20520;-64
2021/05/31 07:37:27;;;;;;;3.37;3.07;;;16.00;99.90;;;;;;5070737;28;20477;-65
2021/05/31 07:39:54;;;;;;;4.37;2.87;;;16.10;99.90;;;;;;5070461;28;20492;-65
2021/05/31 07:42:21;;;;;;;3.80;3.00;;;16.20;99.90;;;;;;5070696;28;20447;-64
2021/05/31 07:44:47;;;;;;;3.07;2.70;;;16.30;98.50;;;;;;5070484;28;20447;-64
2021/05/31 07:47:14;;;;;;;3.77;2.70;;;16.40;97.60;;;;;;5070386;28;20816;-64
2021/05/31 07:49:41;;;;;;;3.47;2.97;;;16.50;96.30;;;;;;5070022;28;20479;-64
2021/05/31 07:52:09;;;;;;;4.00;2.70;;;16.70;97.10;;;;;;5070021;28;20485;-64
2021/05/31 07:54:36;;;;;;;3.10;2.50;;;16.70;95.00;;;;;;5070180;28;20474;-64
2021/05/31 07:57:05;;;;;;;3.37;2.30;;;16.80;94.00;;;;;;5069953;28;21020;-63
2021/05/31 07:59:31;;;;;;;3.23;2.50;;;16.90;95.40;;;;;;5069607;28;20952;-63
2021/05/31 08:01:57;;;;;;;3.55;3.00;;;17.10;94.20;;;;;;5068991;28;20525;-64
2021/05/31 08:04:24;;;;;;;2.90;2.60;;;17.20;94.90;;;;;;5069712;28;20209;-64
2021/05/31 08:06:50;;;;;;;3.03;2.73;;;17.30;93.10;;;;;;5070110;28;20534;-64
2021/05/31 08:09:16;;;;;;;3.30;3.00;;;17.30;92.90;;;;;;5069519;28;20482;-64
2021/05/31 08:11:43;;;;;;;3.60;2.73;;;17.30;92.20;;;;;;5069889;28;20477;-64
2021/05/31 08:14:10;;;;;;;3.80;3.50;;;17.40;92.30;;;;;;5069806;28;20447;-64
2021/05/31 08:16:37;;;;;;;3.83;2.70;;;17.50;92.30;;;;;;5069819;28;20480;-65
2021/05/31 08:19:03;;;;;;;4.30;2.80;;;17.60;91.00;;;;;;5069566;28;20453;-64
2021/05/31 08:21:29;;;;;;;3.70;2.70;;;17.60;90.70;;;;;;5069857;28;20566;-65
2021/05/31 08:23:56;;;;;;;3.00;2.60;;;17.70;89.30;;;;;;5070004;28;20447;-64
2021/05/31 08:26:22;;;;;;;3.17;2.60;;;17.70;89.80;;;;;;5069817;28;20534;-65
2021/05/31 08:28:49;;;;;;;3.40;2.70;;;17.80;88.90;;;;;;5069529;28;20489;-65
2021/05/31 08:31:17;;;;;;;3.07;2.60;;;17.80;88.60;;;;;;5069358;28;20488;-64
2021/05/31 08:33:43;;;;;;;2.90;2.60;;;17.80;89.00;;;;;;5069797;28;20526;-63
2021/05/31 08:36:10;;;;;;;5.07;2.70;;;17.80;91.40;;;;;;5069741;28;20476;-64
2021/05/31 08:38:36;;;;;;;3.30;2.60;;;18.00;89.30;;;;;;5069646;28;20439;-64
2021/05/31 08:41:03;;;;;;;3.20;2.77;;;17.90;86.80;;;;;;5069387;28;20558;-65
2021/05/31 08:43:29;;;;;;;3.17;2.60;;;17.70;85.70;;;;;;5069682;28;20447;-64
2021/05/31 08:45:56;;;;;;;3.90;2.70;;;17.70;88.70;;;;;;5070080;28;20461;-64
2021/05/31 08:48:24;;;;;;;5.53;3.13;;;17.70;86.80;;;;;;5069964;28;20902;-65
2021/05/31 08:50:51;;;;;;;3.07;2.77;;;17.80;90.10;;;;;;5069413;28;21003;-65
2021/05/31 08:53:19;;;;;;;3.73;2.67;;;17.90;90.50;;;;;;5069767;28;20469;-65
2021/05/31 08:55:46;;;;;;;4.10;2.73;;;18.00;87.10;;;;;;5069917;28;20457;-64
2021/05/31 08:58:13;;;;;;;3.23;2.93;;;18.10;87.70;;;;;;5069701;28;20442;-66
2021/05/31 09:00:40;;;;;;;4.27;3.13;;;18.20;88.30;;;;;;5069874;28;20472;-64
2021/05/31 09:03:09;;;;;;;4.27;3.07;;;18.30;87.30;;;;;;5069779;28;20562;-64
2021/05/31 09:05:38;;;;;;;3.23;2.70;;;18.00;86.20;;;;;;5069713;28;20447;-65
2021/05/31 09:08:07;;;;;;;3.37;3.07;;;18.00;87.50;;;;;;5069772;28;20478;-64
2021/05/31 09:10:36;;;;;;;4.33;2.57;;;18.00;85.10;;;;;;5069194;28;20467;-64
2021/05/31 09:13:03;;;;;;;2.60;2.40;;;17.90;89.50;;;;;;5070213;28;20450;-64
2021/05/31 09:15:30;;;;;;;3.53;3.20;;;18.10;90.30;;;;;;5074096;28;20478;-64
2021/05/31 09:17:57;;;;;;;3.93;2.93;;;18.40;88.90;;;;;;5074174;28;20442;-64
2021/05/31 09:20:25;;;;;;;3.60;2.83;;;18.70;89.70;;;;;;5073153;28;20980;-64
2021/05/31 09:22:55;;;;;;;3.63;2.87;;;18.90;87.30;;;;;;5073333;28;20467;-64
2021/05/31 09:25:29;;;;;;;4.10;2.53;;;18.60;81.30;;;;;;5073337;28;20884;-65
2021/05/31 09:27:56;;;;;;;4.00;3.37;;;18.50;84.60;;;;;;5073617;28;20529;-65
2021/05/31 09:30:34;;;;;;;5.03;2.87;;;18.60;87.30;;;;;;5072995;28;20473;-65
2021/05/31 09:33:01;;;;;;;3.67;3.37;;;18.70;83.60;;;;;;5073251;28;20447;-64
2021/05/31 09:35:28;;;;;;;3.60;2.70;;;18.60;80.50;;;;;;5073052;28;20564;-65
2021/05/31 09:38:02;;;;;;;3.27;2.77;;;18.30;86.30;;;;;;5073121;28;20580;-64
2021/05/31 09:40:29;;;;;;;3.70;3.00;;;18.40;82.80;;;;;;5072541;28;21006;-65
2021/05/31 09:42:57;;;;;;;5.87;3.10;;;18.70;87.20;;;;;;5072922;28;20453;-64
2021/05/31 09:45:24;;;;;;;3.97;3.03;;;18.80;82.20;;;;;;5072743;28;20948;-64
2021/05/31 09:47:50;;;;;;;4.23;3.50;;;18.80;83.80;;;;;;5073094;28;20458;-65
2021/05/31 09:50:24;;;;;;;3.90;2.83;;;19.10;84.90;;;;;;5072337;28;20463;-64
2021/05/31 09:53:04;;;;;;;4.00;3.00;;;19.40;84.20;;;;;;5072867;28;20492;-65
2021/05/31 09:55:35;;;;;;;4.00;2.70;;;19.70;80.80;;;;;;5073283;28;20561;-65
2021/05/31 09:58:05;;;;;;;3.37;3.07;;;20.40;83.30;;;;;;5072679;28;20542;-65
2021/05/31 10:00:32;;;;;;;3.13;2.83;;;20.60;77.00;;;;;;5072081;28;20473;-65
2021/05/31 10:03:03;;;;;;;4.37;3.07;;;20.80;76.60;;;;;;5072333;28;20451;-66
2021/05/31 10:05:39;;;;;;;3.07;2.60;;;21.30;77.40;;;;;;5072501;28;20451;-66
2021/05/31 10:08:39;;;;;;;4.67;3.30;;;21.90;70.90;;;;;;5072307;28;20990;-65
2021/05/31 10:11:03;;;;;;;3.30;3.00;;;21.80;70.60;;;;;;5071480;28;20459;-65
2021/05/31 10:13:30;;;;;;;3.73;3.00;;;21.80;74.60;;;;;;5072303;28;20698;-65
2021/05/31 10:15:57;;;;;;;4.70;2.83;;;21.60;71.20;;;;;;5072219;28;20451;-65
2021/05/31 10:18:26;;;;;;;3.90;2.70;;;21.10;71.30;;;;;;5072197;28;20431;-65
2021/05/31 10:20:53;;;;;;;3.30;2.93;;;21.50;76.20;;;;;;5071807;28;20864;-64
2021/05/31 10:23:21;;;;;;;3.87;2.70;;;21.90;70.90;;;;;;5071888;28;20463;-65
2021/05/31 10:25:54;;;;;;;5.20;3.40;;;21.90;68.90;;;;;;5071110;28;21007;-65
2021/05/31 10:28:23;;;;;;;3.60;3.03;;;22.40;69.50;;;;;;5072161;28;20915;-64
2021/05/31 10:30:51;;;;;;;3.37;2.80;;;22.20;66.40;;;;;;5071341;28;20467;-65
2021/05/31 10:33:19;;;;;;;4.53;3.10;;;21.80;69.10;;;;;;5071772;28;20488;-65
2021/05/31 10:35:47;;;;;;;4.00;2.53;;;21.70;67.50;;;;;;5071757;28;20443;-65
2021/05/31 10:38:15;;;;;;;5.23;2.90;;;22.00;73.40;;;;;;5071642;28;20435;-66
2021/05/31 10:40:45;;;;;;;3.47;2.40;;;22.70;72.80;;;;;;5071284;28;20481;-65
2021/05/31 10:43:12;;;;;;;3.60;2.50;;;23.60;65.50;;;;;;5071716;28;20834;-65
2021/05/31 10:45:40;;;;;;;3.70;2.60;;;24.00;66.20;;;;;;5071271;28;20454;-64
2021/05/31 10:48:11;;;;;;;4.23;2.80;;;24.00;61.90;;;;;;5071259;28;20523;-64
2021/05/31 10:50:40;;;;;;;3.80;2.60;;;23.50;66.90;;;;;;5070854;28;20990;-65
2021/05/31 10:53:26;;;;;;;3.87;2.83;;;23.50;62.10;;;;;;5071342;28;20451;-64
2021/05/31 10:55:55;;;;;;;3.50;2.50;;;23.30;63.00;;;;;;5071389;28;20442;-65
2021/05/31 10:58:25;;;;;;;3.73;2.80;;;23.70;67.10;;;;;;5071822;28;20541;-65
2021/05/31 11:00:57;;;;;;;3.03;2.63;;;23.50;59.70;;;;;;5070911;28;20886;-65
2021/05/31 11:03:24;;;;;;;3.53;3.00;;;23.30;66.60;;;;;;5071461;28;20538;-65
2021/05/31 11:05:51;;;;;;;3.00;2.70;;;23.70;64.40;;;;;;5071368;28;20509;-64
2021/05/31 11:08:25;;;;;;;3.70;2.70;;;23.70;62.70;;;;;;5071737;28;20475;-64
2021/05/31 11:10:59;;;;;;;3.00;2.63;;;23.00;58.60;;;;;;5071011;28;20494;-65
2021/05/31 11:13:26;;;;;;;4.47;2.70;;;22.50;61.60;;;;;;5071223;28;21130;-65
2021/05/31 11:16:05;;;;;;;2.60;2.40;;;22.20;64.10;;;;;;5071287;28;20447;-65
2021/05/31 11:18:42;;;;;;;3.00;2.70;;;22.40;66.40;;;;;;5071216;28;20893;-64
2021/05/31 11:21:10;;;;;;;3.03;2.73;;;22.70;66.70;;;;;;5070571;28;20462;-65
2021/05/31 11:23:38;;;;;;;4.20;2.97;;;23.30;65.90;;;;;;5070813;28;20450;-65
2021/05/31 11:26:07;;;;;;;4.03;2.60;;;24.20;65.80;;;;;;5070813;28;20936;-65
2021/05/31 11:28:33;;;;;;;3.33;2.80;;;24.90;64.40;;;;;;5070667;28;20850;-65
2021/05/31 11:30:59;;;;;;;3.00;2.70;;;25.20;61.20;;;;;;5070436;28;21237;-65
2021/05/31 11:33:26;;;;;;;4.60;2.60;;;24.80;57.50;;;;;;5070540;28;20917;-65
2021/05/31 11:35:52;;;;;;;3.87;3.07;;;24.90;59.50;;;;;;5070363;28;20941;-65
2021/05/31 11:38:20;;;;;;;5.00;2.33;;;25.20;57.40;;;;;;5069294;28;20449;-65
2021/05/31 11:40:47;;;;;;;4.97;2.43;;;24.90;59.00;;;;;;5069944;28;20502;-65
2021/05/31 11:43:15;;;;;;;3.70;2.90;;;25.40;63.00;;;;;;5070429;28;20453;-65
2021/05/31 11:45:44;;;;;;;2.50;2.20;;;25.40;55.40;;;;;;5070156;28;20575;-65
2021/05/31 11:48:13;;;;;;;3.20;2.63;;;25.20;56.70;;;;;;5070390;28;20450;-65
2021/05/31 11:50:40;;;;;;;5.10;2.63;;;24.90;57.30;;;;;;5070207;28;20524;-64
2021/05/31 11:53:08;;;;;;;3.43;2.90;;;25.00;57.30;;;;;;5070316;28;20457;-65
2021/05/31 11:55:35;;;;;;;5.03;2.70;;;24.50;58.80;;;;;;5070057;28;20451;-65
2021/05/31 11:58:03;;;;;;;3.73;2.83;;;25.10;60.50;;;;;;5069983;28;20538;-65
2021/05/31 12:00:32;;;;;;;3.40;2.40;;;25.60;55.00;;;;;;5069587;28;20477;-65
2021/05/31 12:02:59;;;;;;;3.30;2.90;;;25.60;54.50;;;;;;5069925;28;20961;-65
2021/05/31 12:05:32;;;;;;;3.13;2.67;;;26.30;54.70;;;;;;5069866;28;20438;-65
2021/05/31 12:08:04;;;;;;;3.20;2.57;;;26.30;55.10;;;;;;5070023;28;20443;-65
2021/05/31 12:10:31;;;;;;;3.23;2.60;;;26.90;56.10;;;;;;5069593;28;21027;-65
2021/05/31 12:12:57;;;;;;;3.70;2.53;;;27.60;53.70;;;;;;5069904;28;20453;-65
2021/05/31 12:15:24;;;;;;;3.97;2.80;;;27.40;51.50;;;;;;5069917;28;20582;-66
2021/05/31 12:17:53;;;;;;;2.70;2.33;;;27.30;57.80;;;;;;5069784;28;20439;-65
2021/05/31 12:20:24;;;;;;;4.37;2.93;;;27.40;52.70;;;;;;5069734;28;20502;-66
2021/05/31 12:22:50;;;;;;;3.43;3.13;;;27.60;51.80;;;;;;5069726;28;20541;-65
2021/05/31 12:25:17;;;;;;;3.10;2.73;;;27.50;53.50;;;;;;5069858;28;20828;-65
2021/05/31 12:27:43;;;;;;;4.27;2.80;;;28.10;53.80;;;;;;5069730;28;20675;-65
2021/05/31 12:30:12;;;;;;;3.57;2.60;;;28.30;52.30;;;;;;5069128;28;20478;-66
2021/05/31 12:32:39;;;;;;;3.20;2.70;;;28.50;54.60;;;;;;5069603;28;20504;-66
2021/05/31 12:35:09;;;;;;;3.70;2.97;;;29.50;55.10;;;;;;5069638;28;20865;-65
2021/05/31 12:37:37;;;;;;;3.73;2.90;;;29.90;52.20;;;;;;5069681;28;20451;-65
2021/05/31 12:40:07;;;;;;;3.33;2.80;;;29.40;47.60;;;;;;5069227;28;20443;-66
2021/05/31 12:42:34;;;;;;;3.10;2.00;;;29.30;54.10;;;;;;5069558;28;20447;-65
2021/05/31 12:45:03;;;;;;;3.33;2.33;;;29.80;47.50;;;;;;5069492;28;20530;-65
2021/05/31 12:47:34;;;;;;;3.27;2.37;;;29.10;50.90;;;;;;5069841;28;20461;-65
2021/05/31 12:50:00;;;;;;;3.30;2.33;;;28.60;48.70;;;;;;5072418;28;20479;-66
2021/05/31 12:52:30;;;;;;;2.97;1.90;;;28.40;49.30;;;;;;5074016;28;20496;-66
2021/05/31 12:55:00;;;;;;;3.83;2.47;;;28.50;46.90;;;;;;5074661;28;20447;-65
2021/05/31 12:57:32;;;;;;;3.23;2.50;;;28.60;50.60;;;;;;5074267;28;20534;-65
2021/05/31 12:59:59;;;;;;;2.70;2.20;;;28.90;45.80;;;;;;5073279;28;20952;-66
2021/05/31 13:02:28;;;;;;;3.23;2.57;;;28.80;49.30;;;;;;5073645;28;20884;-66
2021/05/31 13:05:04;;;;;;;6.50;2.37;;;29.70;48.50;;;;;;5073376;28;20998;-66